Архив погоды в Кирсе

Метеограмма Кирс
Четверг, 16 Августа
Время местн. Темп Ветер Видим Явления Облачность нижн/средн/верх Атм. давл. Влжн Точка росы ВНГО R Сост. почвы Tg s
Напр Скр Прв ур.ст ур.м изм
00:00 +13.2° штиль 0 0 20 км - облачно 746 761 -0.3 91% +11.7° - - - - -
Среда, 15 Августа
Время местн. Темп Ветер Видим Явления Облачность нижн/средн/верх Атм. давл. Влжн Точка росы ВНГО R Сост. почвы Tg s
Напр Скр Прв ур.ст ур.м изм
21:00 +14.5° штиль 0 0 20 км - облачно 746 761 0 84% +11.9° - - - - -
18:00 +18.1° Ю-З 2 3 20 км - облачно 746 761 +0.2 61% +10.5° 1 км 0 - - -
15:00 +19.8° З 3 5 20 км - облачно 746 760 +0.3 51% +9.3° 600 м - - - -
12:00 +19.1° З,Ю-З 3 5 20 км - облачно 745 760 +0.1 61% +11.4° 600 м - - - -
09:00 +16.6° Ю-З 2 4 20 км - переменная облачность 745 760 +0.2 74% +11.9° 1 км - - - -
06:00 +10.1° З,Ю-З 1 2 20 км - ясно 745 760 +1 97% +9.7° более 2.5 км 0 Влажная (без луж) - -
03:00 +8° штиль 0 0 20 км - ясно 744 759 +0.5 97% +7.6° более 2.5 км - - - -
00:00 +10° штиль 0 0 20 км - ясно 744 759 +0.4 96% +9.4° более 2.5 км - - - -
Вторник, 14 Августа
Время местн. Темп Ветер Видим Явления Облачность нижн/средн/верх Атм. давл. Влжн Точка росы ВНГО R Сост. почвы Tg s
Напр Скр Прв ур.ст ур.м изм
21:00 +13.3° Ю-З 1 1 20 км сплошной поземный туман {гроза, ливневые осадки} переменная облачность 743 758 +1.1 95% +12.5° 1 км - - - -
18:00 +17.5° Ю-З 1 3 20 км небо без изменений {гроза, ливневые осадки} переменная облачность 742 757 +0.6 71% +12.1° 600 м 0.4 - - -
15:00 +17.9° С,С-З 2 4 20 км небо без изменений {ливневые осадки} облачно с прояснениями 741 756 +0.6 74% +13.3° 600 м - - - -
12:00 +18.2° З,Ю-З 3 5 20 км - преимущественно облачно 741 756 +0.4 60% +10.2° 600 м - - - -
09:00 +18.1° Ю-З 3 5 20 км - облачно с прояснениями 741 755 0 60% +10.3° 1.5 км - - - -
06:00 +12.1° Ю-З 1 2 20 км - облачно 741 756 +1 81% +8.9° - 0 Сухая (без трещин) - -
03:00 +11.4° Ю 1 2 20 км - облачно 740 755 +0.3 84% +8.8° более 2.5 км - - - -
00:00 +12.9° З,Ю-З 1 2 20 км - ясно 739 754 +0.3 77% +8.9° более 2.5 км - - - -
Понедельник, 13 Августа
Время местн. Темп Ветер Видим Явления Облачность нижн/средн/верх Атм. давл. Влжн Точка росы ВНГО R Сост. почвы Tg s
Напр Скр Прв ур.ст ур.м изм
21:00 +16.1° З,Ю-З 2 3 20 км - переменная облачность 739 754 +0.7 62% +8.8° 1 км - - - -
18:00 +22.7° З 4 6 20 км - облачно 738 753 -0.2 38% +7.6° 1 км 0 - - -
15:00 +24.8° З,Ю-З 4 8 20 км - облачно 738 753 -0.3 42% +11.1° 1 км - - - -
12:00 +26° Ю,Ю-З 6 9 20 км - облачно 739 753 -1.1 43% +12.3° 1.5 км - - - -
09:00 +21.6° Ю,Ю-З 4 6 20 км - облачно 740 754 -0.9 63% +14.3° - - - - -
06:00 +17.3° Ю,Ю-З 3 5 20 км - облачно с прояснениями 740 755 -0.6 81% +14.1° 1.5 км 0 Сухая (без трещин) - -
03:00 +16.8° Ю,Ю-З 1 3 20 км - ясно 741 756 -0.6 89% +14.9° более 2.5 км - - - -
00:00 +17.8° Ю-З 1 2 20 км - ясно 742 756 -0.5 87% +15.6° более 2.5 км - - - -
Воскресенье, 12 Августа
Время местн. Темп Ветер Видим Явления Облачность нижн/средн/верх Атм. давл. Влжн Точка росы ВНГО R Сост. почвы Tg s
Напр Скр Прв ур.ст ур.м изм
21:00 +20.2° Ю,Ю-З 1 3 20 км - ясно 742 757 -0.2 79% +16.5° более 2.5 км - - - -